createdAt,value
2022-10-25T00:04:55.229Z,11.51
2022-10-25T00:10:18.380Z,11.48
2022-10-25T00:15:41.959Z,11.49
2022-10-25T00:21:04.176Z,11.35
2022-10-25T00:26:28.271Z,11.36
2022-10-25T00:31:51.121Z,11.39
2022-10-25T00:37:13.866Z,11.47
2022-10-25T00:42:43.437Z,11.25
2022-10-25T00:48:10.792Z,11.08
2022-10-25T00:53:37.355Z,11.14
2022-10-25T00:59:02.732Z,11.19
2022-10-25T01:04:29.515Z,11.28
2022-10-25T01:09:53.208Z,11.40
2022-10-25T01:15:16.016Z,11.30
2022-10-25T01:21:06.966Z,11.25
2022-10-25T01:26:52.666Z,11.16
2022-10-25T01:32:41.161Z,11.26
2022-10-25T01:38:22.706Z,11.28
2022-10-25T01:43:53.166Z,11.41
2022-10-25T01:49:20.598Z,11.53
2022-10-25T01:54:44.100Z,11.52
2022-10-25T02:00:25.426Z,11.49
2022-10-25T02:06:07.326Z,11.52
2022-10-25T02:11:44.968Z,11.49
2022-10-25T02:17:21.034Z,11.49
2022-10-25T02:22:46.006Z,11.46
2022-10-25T02:28:12.189Z,11.54
2022-10-25T02:33:34.783Z,11.57
2022-10-25T02:38:58.374Z,11.57
2022-10-25T02:44:21.094Z,11.64
2022-10-25T02:49:43.284Z,11.66
2022-10-25T02:55:05.955Z,11.65
2022-10-25T03:00:29.851Z,11.62
2022-10-25T03:05:52.643Z,11.61
2022-10-25T03:11:15.734Z,11.66
2022-10-25T03:16:38.048Z,11.67
2022-10-25T03:22:00.358Z,11.71
2022-10-25T03:27:22.948Z,11.74
2022-10-25T03:32:45.097Z,11.76
2022-10-25T03:38:08.038Z,11.79
2022-10-25T03:43:30.353Z,11.79
2022-10-25T03:48:52.922Z,11.74
2022-10-25T03:54:15.068Z,11.71
2022-10-25T03:59:37.770Z,11.64
2022-10-25T04:04:59.991Z,11.63
2022-10-25T04:10:25.169Z,11.62
2022-10-25T04:15:46.894Z,11.58
2022-10-25T04:21:10.557Z,11.53
2022-10-25T04:26:34.374Z,11.44
2022-10-25T04:31:56.564Z,11.36
2022-10-25T04:37:18.807Z,11.25
2022-10-25T04:42:41.525Z,11.16
2022-10-25T04:48:03.730Z,11.05
2022-10-25T04:53:26.322Z,11.00
2022-10-25T04:58:49.460Z,10.93
2022-10-25T05:04:11.635Z,10.79
2022-10-25T05:09:33.812Z,10.65
2022-10-25T05:14:56.327Z,10.62
2022-10-25T05:20:19.429Z,10.58
2022-10-25T05:25:41.619Z,10.58
2022-10-25T05:31:04.268Z,10.60
2022-10-25T05:36:28.465Z,10.65
2022-10-25T05:41:50.616Z,10.70
2022-10-25T05:47:13.601Z,10.72
2022-10-25T05:52:35.774Z,10.72
2022-10-25T05:57:59.573Z,10.74
2022-10-25T06:03:22.769Z,10.78
2022-10-25T06:08:45.159Z,10.79
2022-10-25T06:14:07.534Z,10.77
2022-10-25T06:19:29.997Z,10.91
2022-10-25T06:24:52.216Z,10.95
2022-10-25T06:30:14.920Z,11.01
2022-10-25T06:35:37.072Z,11.11
2022-10-25T06:41:01.314Z,11.21
2022-10-25T06:52:10.876Z,11.30
2022-10-25T06:57:33.552Z,11.37
2022-10-25T07:03:01.112Z,11.46
2022-10-25T07:08:24.887Z,11.59
2022-10-25T07:13:47.530Z,11.76
2022-10-25T07:19:17.350Z,11.88
2022-10-25T07:24:40.752Z,11.97
2022-10-25T07:30:03.376Z,12.05
2022-10-25T07:35:25.672Z,12.07
2022-10-25T07:40:48.350Z,12.17
2022-10-25T07:46:12.300Z,12.32
2022-10-25T07:51:35.557Z,12.34
2022-10-25T07:56:58.782Z,12.42
2022-10-25T08:02:26.125Z,12.45
2022-10-25T08:07:48.414Z,12.55
2022-10-25T08:13:12.724Z,12.73
2022-10-25T08:18:35.858Z,12.72
2022-10-25T08:23:58.774Z,12.74
2022-10-25T08:29:20.913Z,12.87
2022-10-25T08:34:43.675Z,12.87
2022-10-25T08:40:05.832Z,12.93
2022-10-25T08:45:47.140Z,13.13
2022-10-25T08:51:14.508Z,13.21
2022-10-25T08:57:03.585Z,13.35
2022-10-25T09:02:15.113Z,13.30
2022-10-25T09:07:49.054Z,13.22
2022-10-25T09:19:01.691Z,12.74
2022-10-25T09:24:51.870Z,12.52
2022-10-25T09:30:28.307Z,12.35
2022-10-25T09:36:00.158Z,12.24
2022-10-25T09:41:27.620Z,12.30
2022-10-25T09:47:06.819Z,12.51
2022-10-25T09:52:54.509Z,12.72
2022-10-25T09:58:18.584Z,12.74
2022-10-25T10:03:45.505Z,12.86
2022-10-25T10:09:22.269Z,13.15
2022-10-25T10:15:03.346Z,13.01
2022-10-25T10:20:33.363Z,13.01
2022-10-25T10:25:50.530Z,13.18
2022-10-25T10:31:15.499Z,13.72
2022-10-25T10:36:46.021Z,13.32
2022-10-25T10:42:21.932Z,13.27
2022-10-25T10:47:58.562Z,13.35
2022-10-25T10:53:37.238Z,13.37
2022-10-25T10:59:03.792Z,13.43
2022-10-25T11:04:26.364Z,13.22
2022-10-25T11:09:48.841Z,13.26
2022-10-25T11:15:12.691Z,13.40
2022-10-25T11:21:18.971Z,13.57
2022-10-25T11:26:54.905Z,13.53
2022-10-25T11:32:38.468Z,13.47
2022-10-25T11:38:11.178Z,13.39
2022-10-25T11:43:48.228Z,13.43
2022-10-25T11:49:36.394Z,13.33
2022-10-25T11:55:21.755Z,13.75
2022-10-25T12:01:11.608Z,14.01
2022-10-25T12:06:58.970Z,13.52
2022-10-25T12:12:29.651Z,13.48
2022-10-25T12:17:53.971Z,13.50
2022-10-25T12:23:20.918Z,13.83
2022-10-25T12:29:05.275Z,14.31
2022-10-25T12:34:34.845Z,14.11
2022-10-25T12:40:01.245Z,14.01
2022-10-25T12:45:58.615Z,14.06
2022-10-25T12:51:40.888Z,14.21
2022-10-25T12:57:23.181Z,13.89
2022-10-25T13:03:19.305Z,14.24
2022-10-25T13:08:52.056Z,14.28
2022-10-25T13:14:28.928Z,14.07
2022-10-25T13:19:55.856Z,13.98
2022-10-25T13:25:36.385Z,13.92
2022-10-25T13:30:58.528Z,13.88
2022-10-25T13:36:22.579Z,13.82
2022-10-25T13:41:53.860Z,13.72
2022-10-25T13:47:17.937Z,13.67
2022-10-25T13:52:47.097Z,13.72
2022-10-25T13:58:32.557Z,14.10
2022-10-25T14:04:10.828Z,14.13
2022-10-25T14:09:44.731Z,14.39
2022-10-25T14:15:20.427Z,14.86
2022-10-25T14:20:50.119Z,14.17
2022-10-25T14:26:08.828Z,13.83
2022-10-25T14:31:34.277Z,13.72
2022-10-25T14:37:01.723Z,13.70
2022-10-25T14:42:30.739Z,13.62
2022-10-25T14:47:55.488Z,13.56
2022-10-25T14:53:22.338Z,13.49
2022-10-25T14:58:48.941Z,13.40
2022-10-25T15:04:15.513Z,13.27
2022-10-25T15:09:43.119Z,13.12
2022-10-25T15:15:26.198Z,12.93
2022-10-25T15:20:56.510Z,12.74
2022-10-25T15:26:38.477Z,12.59
2022-10-25T15:32:02.362Z,12.46
2022-10-25T15:37:37.278Z,12.36
2022-10-25T15:42:59.433Z,12.12
2022-10-25T15:48:36.520Z,11.93
2022-10-25T15:53:58.740Z,11.75
2022-10-25T15:59:21.354Z,11.61
2022-10-25T16:04:43.668Z,11.43
2022-10-25T16:10:05.839Z,11.32
2022-10-25T16:15:31.287Z,11.19
2022-10-25T16:20:55.178Z,10.96
2022-10-25T16:26:22.752Z,10.78
2022-10-25T16:31:45.264Z,10.77
2022-10-25T16:37:11.373Z,10.80
2022-10-25T16:42:51.803Z,10.54
2022-10-25T16:48:15.238Z,10.44
2022-10-25T16:53:37.802Z,10.47
2022-10-25T16:59:00.937Z,10.46
2022-10-25T17:04:25.767Z,10.42
2022-10-25T17:09:48.680Z,10.40
2022-10-25T17:15:11.649Z,10.18
2022-10-25T17:20:34.655Z,9.97
2022-10-25T17:25:58.958Z,9.88
2022-10-25T17:31:33.698Z,9.97
2022-10-25T17:36:56.803Z,9.66
2022-10-25T17:42:22.446Z,9.52
2022-10-25T17:47:46.327Z,9.45
2022-10-25T17:53:10.917Z,9.51
2022-10-25T17:58:33.296Z,9.31
2022-10-25T18:03:57.349Z,9.07
2022-10-25T18:09:19.943Z,9.12
2022-10-25T18:14:45.531Z,9.23
2022-10-25T18:20:08.158Z,9.30
2022-10-25T18:25:30.973Z,9.53
2022-10-25T18:30:53.423Z,9.58
2022-10-25T18:36:23.215Z,9.58
2022-10-25T18:41:48.370Z,9.58
2022-10-25T18:47:11.102Z,9.45
2022-10-25T18:52:33.354Z,9.55
2022-10-25T18:57:55.968Z,9.59
2022-10-25T19:03:18.327Z,9.65
2022-10-25T19:08:41.053Z,9.74
2022-10-25T19:14:07.735Z,9.78
2022-10-25T19:19:29.897Z,9.79
2022-10-25T19:24:52.187Z,9.81
2022-10-25T19:30:15.873Z,9.82
2022-10-25T19:35:38.211Z,9.84
2022-10-25T19:41:03.686Z,9.90
2022-10-25T19:46:27.301Z,9.92
2022-10-25T19:51:49.898Z,9.99
2022-10-25T19:57:12.103Z,10.03
2022-10-25T20:02:34.487Z,10.07
2022-10-25T20:07:57.367Z,10.06
2022-10-25T20:13:19.613Z,10.08
2022-10-25T20:18:45.192Z,10.12
2022-10-25T20:24:12.278Z,10.16
2022-10-25T20:29:37.343Z,10.22
2022-10-25T20:34:59.717Z,10.18
2022-10-25T20:40:22.967Z,10.16
2022-10-25T20:45:47.687Z,10.06
2022-10-25T20:51:11.545Z,9.92
2022-10-25T20:56:38.160Z,9.85
2022-10-25T21:02:00.892Z,9.83
2022-10-25T21:07:23.324Z,9.64
2022-10-25T21:12:45.507Z,9.35
2022-10-25T21:18:08.212Z,9.32
2022-10-25T21:23:32.528Z,9.31
2022-10-25T21:28:56.312Z,9.30
2022-10-25T21:39:41.228Z,9.37
2022-10-25T21:45:03.386Z,9.17
2022-10-25T21:50:26.115Z,9.15
2022-10-25T21:55:48.535Z,9.12
2022-10-25T22:01:13.058Z,9.03
2022-10-25T22:06:37.947Z,9.04
2022-10-25T22:12:01.767Z,8.94
2022-10-25T22:17:23.945Z,9.15
2022-10-25T22:22:46.314Z,9.18
2022-10-25T22:28:09.641Z,9.18
2022-10-25T22:33:32.684Z,9.03
2022-10-25T22:38:55.882Z,9.00
2022-10-25T22:44:18.295Z,9.02
2022-10-25T22:49:40.586Z,8.99
2022-10-25T22:55:02.749Z,9.01
2022-10-25T23:00:25.811Z,9.09
2022-10-25T23:05:47.979Z,9.25
2022-10-25T23:11:14.730Z,9.31
2022-10-25T23:16:37.648Z,9.35
2022-10-25T23:21:59.784Z,9.35
2022-10-25T23:27:22.466Z,9.45
2022-10-25T23:32:44.625Z,9.50
2022-10-25T23:38:07.873Z,9.53
2022-10-25T23:43:30.041Z,9.54
2022-10-25T23:48:52.274Z,9.52
2022-10-25T23:54:14.426Z,9.48
2022-10-25T23:59:36.561Z,9.51
